Time;durP1;ratioP1;P1;durP2;ratioP2;P2;SDS_P1;SDS_P2;PMS_P1;PMS_P2;Temp;Humidity;BMP_temperature;BMP_pressure;BME280_temperature;BME280_humidity;BME280_pressure;Samples;Min_cycle;Max_cycle;Signal;HPM_P1;HPM_P2
2023/04/04 00:04:48;;;;;;;;;;;;;;;;;;12783347;23;20106;-82
2023/04/04 00:09:53;;;;;;;3.95;2.20;;;;;;;;;;12782144;23;20334;-83
2023/04/04 00:15:05;;;;;;;2.53;1.98;;;;;;;;;;12775454;23;20005;-81
2023/04/04 00:20:06;;;;;;;2.50;1.70;;;;;;;;;;12814598;23;20017;-81
2023/04/04 00:25:09;;;;;;;2.47;1.83;;;;;;;;;;12777664;23;20067;-84
2023/04/04 00:30:11;;;;;;;2.20;1.92;;;;;;;;;;12816224;23;20025;-80
2023/04/04 00:35:11;;;;;;;4.13;1.80;;;;;;;;;;12790476;23;20021;-81
2023/04/04 00:40:12;;;;;;;3.50;2.00;;;;;;;;;;12806035;23;20040;-82
2023/04/04 00:45:14;;;;;;;6.20;2.03;;;;;;;;;;12835477;23;20001;-81
2023/04/04 00:50:15;;;;;;;2.40;1.98;;;;;;;;;;12839216;23;20017;-79
2023/04/04 00:55:16;;;;;;;3.30;1.90;;;;;;;;;;12804802;23;20013;-79
2023/04/04 01:00:18;;;;;;;2.95;1.50;;;;;;;;;;12806165;23;20005;-80
2023/04/04 01:05:18;;;;;;;2.80;1.65;;;;;;;;;;12790415;23;20191;-76
2023/04/04 01:10:20;;;;;;;3.45;2.15;;;;;;;;;;12769411;23;20037;-77
2023/04/04 01:15:21;;;;;;;3.72;1.83;;;;;;;;;;12811858;23;20058;-77
2023/04/04 01:20:24;;;;;;;2.63;1.73;;;;;;;;;;12801180;23;20036;-77
2023/04/04 01:25:30;;;;;;;2.47;2.10;;;;;;;;;;12795815;23;20019;-77
2023/04/04 01:30:35;;;;;;;3.00;2.08;;;;;;;;;;12785812;23;20028;-78
2023/04/04 01:35:38;;;;;;;;;;;;;;;;;;12781988;23;20087;-79
2023/04/04 01:40:40;;;;;;;3.50;2.00;;;;;;;;;;12783264;23;19990;-80
2023/04/04 01:45:43;;;;;;;3.20;1.90;;;;;;;;;;12781837;23;20272;-79
2023/04/04 01:50:46;;;;;;;2.83;2.05;;;;;;;;;;12758158;23;20465;-80
2023/04/04 01:55:47;;;;;;;2.55;2.10;;;;;;;;;;12809949;23;20065;-79
2023/04/04 02:00:51;;;;;;;2.55;2.35;;;;;;;;;;12812766;23;20061;-81
2023/04/04 02:05:52;;;;;;;4.70;2.50;;;;;;;;;;12835254;23;20023;-79
2023/04/04 02:10:56;;;;;;;4.15;2.50;;;;;;;;;;12759817;23;20025;-81
2023/04/04 02:15:57;;;;;;;3.65;2.67;;;;;;;;;;12782328;23;20016;-84
2023/04/04 02:20:58;;;;;;;3.58;2.83;;;;;;;;;;12784041;23;20100;-81
2023/04/04 02:25:58;;;;;;;6.82;3.33;;;;;;;;;;12777337;23;20421;-80
2023/04/04 02:31:02;;;;;;;;;;;;;;;;;;12784795;23;20028;-78
2023/04/04 02:36:02;;;;;;;4.70;3.33;;;;;;;;;;12786343;23;20063;-78
2023/04/04 02:41:04;;;;;;;3.40;2.65;;;;;;;;;;12782310;23;20013;-78
2023/04/04 02:46:05;;;;;;;3.33;2.70;;;;;;;;;;12781892;23;20021;-77
2023/04/04 02:51:06;;;;;;;3.53;2.80;;;;;;;;;;12780333;23;20025;-78
2023/04/04 02:56:11;;;;;;;4.28;2.92;;;;;;;;;;12779196;23;20389;-79
2023/04/04 03:01:11;;;;;;;3.20;2.90;;;;;;;;;;12779208;23;20017;-79
2023/04/04 03:06:13;;;;;;;4.20;2.78;;;;;;;;;;12780331;23;20017;-78
2023/04/04 03:11:22;;;;;;;4.07;2.88;;;;;;;;;;12780607;23;20065;-78
2023/04/04 03:16:27;;;;;;;6.60;3.30;;;;;;;;;;12755787;23;20434;-78
2023/04/04 03:21:28;;;;;;;5.00;3.42;;;;;;;;;;12781921;23;20021;-77
2023/04/04 03:26:31;;;;;;;3.57;3.07;;;;;;;;;;12755571;23;20091;-78
2023/04/04 03:31:31;;;;;;;4.43;3.05;;;;;;;;;;12754916;23;20075;-77
2023/04/04 03:36:33;;;;;;;4.97;3.28;;;;;;;;;;12780461;23;20024;-76
2023/04/04 03:41:34;;;;;;;4.57;4.03;;;;;;;;;;12778689;23;20017;-77
2023/04/04 03:46:34;;;;;;;5.60;2.92;;;;;;;;;;12782250;23;20009;-76
2023/04/04 03:51:35;;;;;;;4.57;3.25;;;;;;;;;;12783887;23;20107;-77
2023/04/04 03:56:37;;;;;;;4.40;3.15;;;;;;;;;;12798621;23;20013;-79
2023/04/04 04:01:40;;;;;;;5.20;3.35;;;;;;;;;;12789032;23;20055;-77
2023/04/04 04:06:42;;;;;;;4.65;2.78;;;;;;;;;;12807972;23;20040;-77
2023/04/04 04:11:43;;;;;;;3.80;2.85;;;;;;;;;;12805053;23;20037;-74
2023/04/04 04:16:44;;;;;;;4.47;2.45;;;;;;;;;;12789335;23;20036;-75
2023/04/04 04:21:48;;;;;;;3.67;2.63;;;;;;;;;;12796591;23;20032;-78
2023/04/04 04:26:50;;;;;;;3.13;2.50;;;;;;;;;;12823001;23;20003;-78
2023/04/04 04:31:52;;;;;;;4.25;2.70;;;;;;;;;;12844961;23;20032;-77
2023/04/04 04:36:54;;;;;;;4.75;2.50;;;;;;;;;;12829577;23;20056;-77
2023/04/04 04:41:59;;;;;;;4.15;2.65;;;;;;;;;;12823840;23;20012;-76
2023/04/04 04:47:02;;;;;;;3.55;2.65;;;;;;;;;;12810818;23;20020;-77
2023/04/04 04:52:03;;;;;;;5.70;3.13;;;;;;;;;;12789996;23;20759;-79
2023/04/04 04:57:06;;;;;;;4.93;3.25;;;;;;;;;;12752662;23;20017;-76
2023/04/04 05:02:09;;;;;;;5.30;3.25;;;;;;;;;;12778373;23;20071;-76
2023/04/04 05:07:15;;;;;;;3.67;2.97;;;;;;;;;;12753997;23;20446;-78
2023/04/04 05:12:19;;;;;;;6.80;3.40;;;;;;;;;;12778687;23;20013;-76
2023/04/04 05:17:23;;;;;;;3.75;2.90;;;;;;;;;;12779925;23;20064;-77
2023/04/04 05:22:27;;;;;;;5.60;3.30;;;;;;;;;;12781161;23;20448;-76
2023/04/04 05:27:34;;;;;;;4.18;3.22;;;;;;;;;;12753456;23;20474;-78
2023/04/04 05:32:36;;;;;;;4.43;3.00;;;;;;;;;;12751226;23;20019;-78
2023/04/04 05:37:48;;;;;;;6.28;3.22;;;;;;;;;;12777528;23;20044;-76
2023/04/04 05:42:57;;;;;;;4.68;3.58;;;;;;;;;;12775605;23;20076;-77
2023/04/04 05:48:05;;;;;;;4.05;2.95;;;;;;;;;;12779258;23;20059;-78
2023/04/04 05:53:13;;;;;;;2.97;2.67;;;;;;;;;;12777326;23;20021;-77
2023/04/04 05:58:19;;;;;;;4.53;2.90;;;;;;;;;;12779491;23;20040;-78
2023/04/04 06:03:28;;;;;;;5.63;3.20;;;;;;;;;;12800110;23;20024;-79
2023/04/04 06:08:32;;;;;;;3.38;2.63;;;;;;;;;;12824288;23;20092;-80
2023/04/04 06:13:33;;;;;;;5.75;2.90;;;;;;;;;;12816963;23;20013;-80
2023/04/04 06:18:44;;;;;;;6.28;2.90;;;;;;;;;;12782304;23;20019;-79
2023/04/04 06:23:44;;;;;;;5.82;3.10;;;;;;;;;;12776326;23;20071;-78
2023/04/04 06:28:47;;;;;;;4.15;2.63;;;;;;;;;;12775743;23;20416;-80
2023/04/04 06:33:51;;;;;;;3.70;2.78;;;;;;;;;;12785196;23;20009;-81
2023/04/04 06:38:55;;;;;;;3.55;2.92;;;;;;;;;;12752173;23;20013;-79
2023/04/04 06:43:57;;;;;;;7.50;3.60;;;;;;;;;;12776465;23;20017;-80
2023/04/04 06:48:58;;;;;;;5.20;3.00;;;;;;;;;;12775952;23;20311;-80
2023/04/04 06:54:00;;;;;;;4.10;3.38;;;;;;;;;;12785104;23;20017;-78
2023/04/04 06:59:10;;;;;;;4.72;2.85;;;;;;;;;;12798571;23;20013;-83
2023/04/04 07:04:11;;;;;;;5.60;2.88;;;;;;;;;;12783922;23;20075;-81
2023/04/04 07:09:11;;;;;;;4.13;2.97;;;;;;;;;;12777555;23;20074;-80
2023/04/04 07:14:13;;;;;;;4.18;2.55;;;;;;;;;;12793679;23;20068;-80
2023/04/04 07:19:14;;;;;;;3.25;2.72;;;;;;;;;;12792877;23;20039;-80
2023/04/04 07:24:19;;;;;;;4.60;3.10;;;;;;;;;;12789628;23;20051;-78
2023/04/04 07:29:37;;;;;;;3.47;2.80;;;;;;;;;;12764365;23;20021;-81
2023/04/04 07:34:40;;;;;;;4.13;2.75;;;;;;;;;;12784630;23;20021;-79
2023/04/04 07:39:48;;;;;;;4.07;2.85;;;;;;;;;;12788994;23;20017;-83
2023/04/04 07:44:52;;;;;;;3.72;2.60;;;;;;;;;;12767525;23;20016;-87
2023/04/04 07:49:52;;;;;;;;;;;;;;;;;;12823436;23;20031;-84
2023/04/04 07:54:53;;;;;;;3.67;2.58;;;;;;;;;;12820041;23;19896;-88
2023/04/04 07:59:54;;;;;;;3.97;2.95;;;;;;;;;;12833469;23;20696;-82
2023/04/04 08:05:18;;;;;;;;;;;;;;;;;;12780311;22;20040;-82
2023/04/04 08:10:20;;;;;;;3.25;2.65;;;;;;;;;;12784818;23;19955;-81
2023/04/04 08:15:21;;;;;;;3.07;2.47;;;;;;;;;;12782070;23;20013;-79
2023/04/04 08:20:21;;;;;;;5.85;3.30;;;;;;;;;;12784023;23;20020;-79
2023/04/04 08:25:24;;;;;;;3.97;2.40;;;;;;;;;;12791536;23;20005;-81
2023/04/04 08:30:27;;;;;;;3.30;2.38;;;;;;;;;;12808330;23;20025;-82
2023/04/04 08:35:30;;;;;;;4.70;3.05;;;;;;;;;;12812615;23;20013;-80
2023/04/04 08:40:31;;;;;;;4.18;3.08;;;;;;;;;;12818490;23;20040;-81
2023/04/04 08:45:32;;;;;;;4.60;2.85;;;;;;;;;;12803876;23;20020;-84
2023/04/04 08:50:35;;;;;;;3.33;2.60;;;;;;;;;;12790307;23;20105;-82
2023/04/04 08:55:36;;;;;;;5.25;3.40;;;;;;;;;;12793501;23;20758;-81
2023/04/04 09:00:39;;;;;;;6.65;3.20;;;;;;;;;;12801893;23;20116;-83
2023/04/04 09:05:42;;;;;;;4.38;3.28;;;;;;;;;;12816480;23;20029;-81
2023/04/04 09:10:44;;;;;;;6.57;3.35;;;;;;;;;;12813982;23;20025;-81
2023/04/04 09:15:50;;;;;;;3.83;2.92;;;;;;;;;;12786979;23;20027;-84
2023/04/04 09:20:53;;;;;;;4.35;3.00;;;;;;;;;;12771828;23;20016;-82
2023/04/04 09:25:54;;;;;;;2.92;2.58;;;;;;;;;;12812119;23;20023;-83
2023/04/04 09:30:55;;;;;;;3.35;2.50;;;;;;;;;;12819854;23;20030;-82
2023/04/04 09:36:05;;;;;;;3.00;2.65;;;;;;;;;;12842045;23;20024;-82
2023/04/04 09:41:08;;;;;;;4.28;3.08;;;;;;;;;;12800312;23;20019;-83
2023/04/04 09:46:12;;;;;;;;;;;;;;;;;;12789567;23;20017;-83
2023/04/04 09:51:12;;;;;;;3.33;2.70;;;;;;;;;;12803286;23;19920;-82
2023/04/04 09:56:14;;;;;;;5.85;3.20;;;;;;;;;;12767268;23;20025;-81
2023/04/04 10:01:16;;;;;;;4.97;3.00;;;;;;;;;;12768444;23;20020;-83
2023/04/04 10:06:19;;;;;;;3.45;2.85;;;;;;;;;;12797161;23;20827;-86
2023/04/04 10:11:32;;;;;;;4.22;3.15;;;;;;;;;;12776397;23;20341;-80
2023/04/04 10:16:37;;;;;;;4.65;3.30;;;;;;;;;;12831861;23;20036;-82
2023/04/04 10:22:00;;;;;;;4.43;3.45;;;;;;;;;;12799219;23;20039;-81
2023/04/04 10:27:00;;;;;;;5.15;2.88;;;;;;;;;;12788021;23;20013;-80
2023/04/04 10:32:04;;;;;;;4.78;2.92;;;;;;;;;;12786649;23;20031;-84
2023/04/04 10:37:07;;;;;;;5.20;3.25;;;;;;;;;;12795270;23;20033;-84
2023/04/04 10:42:09;;;;;;;4.22;3.58;;;;;;;;;;12809334;23;20028;-82
2023/04/04 10:47:13;;;;;;;4.03;3.28;;;;;;;;;;12805803;23;20363;-84
2023/04/04 10:52:22;;;;;;;3.35;3.00;;;;;;;;;;12801691;23;20021;-83
2023/04/04 10:57:26;;;;;;;3.47;3.17;;;;;;;;;;12841868;23;19993;-86
2023/04/04 11:02:42;;;;;;;4.03;3.13;;;;;;;;;;12796918;23;20012;-82
2023/04/04 11:07:46;;;;;;;3.97;3.28;;;;;;;;;;12852905;23;20036;-81
2023/04/04 11:12:51;;;;;;;4.70;3.50;;;;;;;;;;12852985;23;20001;-81
2023/04/04 11:18:02;;;;;;;5.28;3.75;;;;;;;;;;12829819;23;19997;-81
2023/04/04 11:23:11;;;;;;;3.75;3.35;;;;;;;;;;12851914;23;20049;-83
2023/04/04 11:28:16;;;;;;;4.32;3.22;;;;;;;;;;12853280;23;20008;-82
2023/04/04 11:33:27;;;;;;;5.47;3.60;;;;;;;;;;12839848;22;20008;-81
2023/04/04 11:38:28;;;;;;;4.13;3.30;;;;;;;;;;12853953;23;20030;-80
2023/04/04 11:43:32;;;;;;;4.75;3.58;;;;;;;;;;12819755;23;20155;-80
2023/04/04 11:48:32;;;;;;;5.03;3.33;;;;;;;;;;12788793;23;20036;-82
2023/04/04 11:53:33;;;;;;;4.63;3.47;;;;;;;;;;12785928;23;20453;-80
2023/04/04 11:58:36;;;;;;;3.92;3.40;;;;;;;;;;12803295;23;20044;-77
2023/04/04 12:03:37;;;;;;;4.05;3.13;;;;;;;;;;12796749;23;20080;-79
2023/04/04 12:08:39;;;;;;;5.70;3.45;;;;;;;;;;12759324;23;20438;-80
2023/04/04 12:13:43;;;;;;;6.22;3.92;;;;;;;;;;12789736;23;20013;-83
2023/04/04 12:18:45;;;;;;;5.78;3.53;;;;;;;;;;12759964;23;20105;-80
2023/04/04 12:29:02;;;;;;;4.68;3.67;;;;;;;;;;12768460;23;20022;-80
2023/04/04 12:34:03;;;;;;;3.75;3.35;;;;;;;;;;12738694;23;20025;-80
2023/04/04 12:39:10;;;;;;;3.85;3.15;;;;;;;;;;12687409;23;20017;-79
2023/04/04 12:44:23;;;;;;;4.72;3.55;;;;;;;;;;12694092;23;20088;-81
2023/04/04 12:49:29;;;;;;;5.30;3.40;;;;;;;;;;12721181;23;20075;-80
2023/04/04 12:54:33;;;;;;;4.38;3.40;;;;;;;;;;12693950;23;20033;-81
2023/04/04 12:59:36;;;;;;;4.60;3.55;;;;;;;;;;12688395;23;20061;-83
2023/04/04 13:04:39;;;;;;;4.88;3.60;;;;;;;;;;12752520;23;20024;-81
2023/04/04 13:09:51;;;;;;;5.55;3.50;;;;;;;;;;12724869;23;20022;-79
2023/04/04 13:14:58;;;;;;;3.78;3.45;;;;;;;;;;12720892;23;20076;-81
2023/04/04 13:19:59;;;;;;;3.95;3.40;;;;;;;;;;12757133;23;20002;-83
2023/04/04 13:25:00;;;;;;;4.10;3.60;;;;;;;;;;12780677;23;20012;-80
2023/04/04 13:30:06;;;;;;;3.97;3.57;;;;;;;;;;12771981;23;20045;-82
2023/04/04 13:35:08;;;;;;;4.95;3.85;;;;;;;;;;12743270;23;20784;-82
2023/04/04 13:40:10;;;;;;;5.18;4.10;;;;;;;;;;12716715;23;20002;-81
2023/04/04 13:45:12;;;;;;;4.82;3.85;;;;;;;;;;12766959;23;20135;-79
2023/04/04 13:50:13;;;;;;;5.77;3.77;;;;;;;;;;12725099;23;20022;-79
2023/04/04 13:55:13;;;;;;;4.72;3.35;;;;;;;;;;12744915;23;20069;-79
2023/04/04 14:00:14;;;;;;;4.55;3.08;;;;;;;;;;12731843;23;20009;-78
2023/04/04 14:05:15;;;;;;;4.28;3.28;;;;;;;;;;12750495;23;20123;-80
2023/04/04 14:10:15;;;;;;;4.32;3.40;;;;;;;;;;12735770;23;20053;-79
2023/04/04 14:15:16;;;;;;;4.20;3.05;;;;;;;;;;12730911;23;20009;-79
2023/04/04 14:20:17;;;;;;;5.68;3.70;;;;;;;;;;12675021;23;20019;-79
2023/04/04 14:25:18;;;;;;;4.70;3.58;;;;;;;;;;12724314;23;20033;-79
2023/04/04 14:30:18;;;;;;;4.30;3.38;;;;;;;;;;12726044;23;20730;-79
2023/04/04 14:35:20;;;;;;;5.18;3.60;;;;;;;;;;12726115;23;20113;-78
2023/04/04 14:40:20;;;;;;;4.45;3.75;;;;;;;;;;12729564;23;20013;-79
2023/04/04 14:45:22;;;;;;;4.10;3.70;;;;;;;;;;12726554;23;20009;-78
2023/04/04 14:50:23;;;;;;;6.20;3.75;;;;;;;;;;12742568;23;20029;-82
2023/04/04 14:55:24;;;;;;;5.20;3.85;;;;;;;;;;12731668;23;20100;-80
2023/04/04 15:00:27;;;;;;;5.95;4.10;;;;;;;;;;12725014;23;20113;-79
2023/04/04 15:05:27;;;;;;;4.25;3.30;;;;;;;;;;12729079;23;20089;-79
2023/04/04 15:10:28;;;;;;;7.20;4.22;;;;;;;;;;12734683;23;20113;-80
2023/04/04 15:15:30;;;;;;;6.05;4.03;;;;;;;;;;12729032;23;20019;-79
2023/04/04 15:20:30;;;;;;;4.63;3.58;;;;;;;;;;12731980;23;20674;-81
2023/04/04 15:25:32;;;;;;;9.73;5.38;;;;;;;;;;12731622;23;20017;-80
2023/04/04 15:30:32;;;;;;;4.28;3.50;;;;;;;;;;12734946;23;20056;-79
2023/04/04 15:35:33;;;;;;;4.75;3.97;;;;;;;;;;12739185;23;20096;-79
2023/04/04 15:40:34;;;;;;;4.35;3.95;;;;;;;;;;12737986;23;20014;-79
2023/04/04 15:45:37;;;;;;;5.80;3.90;;;;;;;;;;12731439;23;20013;-81
2023/04/04 15:50:39;;;;;;;5.05;3.70;;;;;;;;;;12777819;23;20040;-79
2023/04/04 15:55:42;;;;;;;4.30;3.50;;;;;;;;;;12749589;23;20013;-78
2023/04/04 16:00:46;;;;;;;4.32;3.80;;;;;;;;;;12721638;23;20018;-80
2023/04/04 16:05:46;;;;;;;5.72;3.63;;;;;;;;;;12724333;23;20005;-80
2023/04/04 16:10:48;;;;;;;4.50;3.65;;;;;;;;;;12698226;23;20026;-80
2023/04/04 16:15:49;;;;;;;5.80;3.65;;;;;;;;;;12738609;23;20274;-79
2023/04/04 16:20:50;;;;;;;5.73;3.77;;;;;;;;;;12751288;23;20240;-80
2023/04/04 16:25:53;;;;;;;4.47;3.92;;;;;;;;;;12752004;23;20241;-78
2023/04/04 16:30:54;;;;;;;5.25;3.75;;;;;;;;;;12724835;23;20051;-79
2023/04/04 16:35:55;;;;;;;7.57;4.23;;;;;;;;;;12723643;23;20094;-81
2023/04/04 16:40:58;;;;;;;4.43;4.00;;;;;;;;;;12728111;23;20251;-82
2023/04/04 16:46:01;;;;;;;4.50;3.72;;;;;;;;;;12726389;23;20016;-81
2023/04/04 16:51:05;;;;;;;5.03;3.80;;;;;;;;;;12726222;23;20045;-82
2023/04/04 16:56:07;;;;;;;18.25;10.30;;;;;;;;;;12731511;23;20021;-81
2023/04/04 17:01:11;;;;;;;6.32;4.75;;;;;;;;;;12736358;23;20019;-82
2023/04/04 17:06:11;;;;;;;;;;;;;;;;;;12703917;23;20021;-80
2023/04/04 17:11:12;;;;;;;7.40;4.60;;;;;;;;;;12737816;23;20327;-79
2023/04/04 17:16:12;;;;;;;5.00;3.42;;;;;;;;;;12726905;23;20072;-80
2023/04/04 17:21:16;;;;;;;5.63;3.88;;;;;;;;;;12723502;23;20041;-82
2023/04/04 17:26:22;;;;;;;6.50;3.80;;;;;;;;;;12702038;23;20009;-83
2023/04/04 17:31:24;;;;;;;4.65;3.53;;;;;;;;;;12718557;23;20029;-81
2023/04/04 17:36:26;;;;;;;4.93;3.42;;;;;;;;;;12721947;23;20014;-80
2023/04/04 17:41:26;;;;;;;5.80;3.50;;;;;;;;;;12727624;23;20020;-81
2023/04/04 17:46:28;;;;;;;5.18;3.58;;;;;;;;;;12761821;23;20006;-81
2023/04/04 17:51:32;;;;;;;5.03;3.92;;;;;;;;;;12769337;23;20022;-82
2023/04/04 17:56:34;;;;;;;5.38;3.55;;;;;;;;;;12764634;23;20037;-80
2023/04/04 18:01:37;;;;;;;4.32;3.75;;;;;;;;;;12748827;23;20017;-80
2023/04/04 18:06:37;;;;;;;4.32;3.38;;;;;;;;;;12772891;23;20059;-80
2023/04/04 18:11:39;;;;;;;7.77;3.80;;;;;;;;;;12778592;23;20013;-81
2023/04/04 18:16:41;;;;;;;6.80;4.25;;;;;;;;;;12783919;23;20008;-81
2023/04/04 18:21:47;;;;;;;4.97;3.75;;;;;;;;;;12783468;23;20002;-81
2023/04/04 18:26:47;;;;;;;4.70;3.30;;;;;;;;;;12778562;23;20006;-80
2023/04/04 18:31:50;;;;;;;;;;;;;;;;;;12769024;23;20021;-79
2023/04/04 18:36:51;;;;;;;4.70;3.47;;;;;;;;;;12747748;23;19924;-77
2023/04/04 18:41:52;;;;;;;7.17;4.03;;;;;;;;;;12749699;23;20020;-79
2023/04/04 18:46:52;;;;;;;6.32;3.85;;;;;;;;;;12702970;23;20257;-80
2023/04/04 18:51:53;;;;;;;5.70;3.85;;;;;;;;;;12665823;23;20033;-79
2023/04/04 18:56:56;;;;;;;5.97;4.20;;;;;;;;;;12716751;23;20006;-78
2023/04/04 19:01:57;;;;;;;5.13;4.25;;;;;;;;;;12691376;23;20021;-77
2023/04/04 19:07:01;;;;;;;6.20;4.22;;;;;;;;;;12722374;23;20017;-80
2023/04/04 19:12:04;;;;;;;5.70;4.57;;;;;;;;;;12723357;23;20028;-80
2023/04/04 19:17:05;;;;;;;5.47;4.13;;;;;;;;;;12726251;23;20017;-79
2023/04/04 19:22:10;;;;;;;7.97;4.47;;;;;;;;;;12720861;23;20017;-79
2023/04/04 19:27:11;;;;;;;4.93;4.13;;;;;;;;;;12720166;23;20115;-79
2023/04/04 19:32:15;;;;;;;6.55;4.63;;;;;;;;;;12725739;23;20454;-80
2023/04/04 19:37:17;;;;;;;6.40;4.57;;;;;;;;;;12714655;23;20064;-79
2023/04/04 19:42:19;;;;;;;8.38;4.60;;;;;;;;;;12737792;23;20017;-78
2023/04/04 19:47:20;;;;;;;7.57;4.80;;;;;;;;;;12723153;23;20084;-79
2023/04/04 19:52:23;;;;;;;7.25;5.00;;;;;;;;;;12717132;23;20166;-79
2023/04/04 19:57:24;;;;;;;6.70;5.75;;;;;;;;;;12717179;23;20017;-79
2023/04/04 20:02:33;;;;;;;6.57;4.75;;;;;;;;;;12727991;23;20022;-77
2023/04/04 20:07:33;;;;;;;7.55;4.30;;;;;;;;;;12751690;23;20013;-81
2023/04/04 20:12:34;;;;;;;6.80;4.97;;;;;;;;;;12724774;23;20503;-79
2023/04/04 20:17:34;;;;;;;6.03;4.32;;;;;;;;;;12720582;23;20017;-80
2023/04/04 20:22:34;;;;;;;6.33;4.50;;;;;;;;;;12722684;23;20057;-82
2023/04/04 20:27:35;;;;;;;6.83;4.10;;;;;;;;;;12734300;23;20237;-81
2023/04/04 20:32:36;;;;;;;6.20;4.40;;;;;;;;;;12759556;23;20265;-81
2023/04/04 20:37:37;;;;;;;6.20;4.35;;;;;;;;;;12776396;23;20009;-79
2023/04/04 20:42:39;;;;;;;6.78;4.25;;;;;;;;;;12750447;23;20037;-80
2023/04/04 20:47:39;;;;;;;9.73;4.80;;;;;;;;;;12735280;23;20056;-81
2023/04/04 20:52:40;;;;;;;6.13;4.10;;;;;;;;;;12744290;23;20001;-80
2023/04/04 20:57:45;;;;;;;6.50;4.38;;;;;;;;;;12753019;23;20088;-80
2023/04/04 21:02:45;;;;;;;6.35;4.50;;;;;;;;;;12722323;23;20013;-76
2023/04/04 21:07:46;;;;;;;9.85;5.55;;;;;;;;;;12715949;23;20009;-77
2023/04/04 21:12:46;;;;;;;8.45;5.70;;;;;;;;;;12716301;23;20098;-77
2023/04/04 21:17:47;;;;;;;10.13;6.40;;;;;;;;;;12725310;23;20044;-81
2023/04/04 21:22:48;;;;;;;8.73;5.88;;;;;;;;;;12738724;23;20009;-80
2023/04/04 21:27:51;;;;;;;7.75;5.28;;;;;;;;;;12730968;23;20692;-81
2023/04/04 21:32:52;;;;;;;8.00;4.75;;;;;;;;;;12721350;23;20800;-83
2023/04/04 21:37:53;;;;;;;5.88;4.47;;;;;;;;;;12698043;23;20778;-81
2023/04/04 21:42:53;;;;;;;7.33;4.87;;;;;;;;;;12726655;23;20043;-82
2023/04/04 21:47:54;;;;;;;8.05;5.07;;;;;;;;;;12735002;23;20261;-87
2023/04/04 21:52:57;;;;;;;;;;;;;;;;;;12758465;23;20002;-82
2023/04/04 21:57:59;;;;;;;6.95;5.22;;;;;;;;;;12759426;23;20172;-83
2023/04/04 22:03:14;;;;;;;6.32;4.63;;;;;;;;;;12780606;22;20045;-82
2023/04/04 22:08:14;;;;;;;9.35;5.70;;;;;;;;;;12823229;23;20000;-81
2023/04/04 22:13:21;;;;;;;6.50;4.97;;;;;;;;;;12837819;23;20464;-79
2023/04/04 22:18:29;;;;;;;7.38;5.78;;;;;;;;;;12798625;23;20508;-78
2023/04/04 22:23:34;;;;;;;7.50;5.35;;;;;;;;;;12777196;23;20020;-80
2023/04/04 22:28:36;;;;;;;8.52;5.15;;;;;;;;;;12776493;23;20013;-80
2023/04/04 22:33:37;;;;;;;7.25;5.10;;;;;;;;;;12778026;23;20311;-81
2023/04/04 22:38:38;;;;;;;8.48;5.30;;;;;;;;;;12750863;23;20013;-79
2023/04/04 22:43:39;;;;;;;7.00;5.30;;;;;;;;;;12776864;23;20445;-81
2023/04/04 22:48:40;;;;;;;10.25;6.57;;;;;;;;;;12798444;23;20025;-81
2023/04/04 22:53:42;;;;;;;9.75;6.00;;;;;;;;;;12812731;23;20013;-83
2023/04/04 22:58:43;;;;;;;7.20;5.63;;;;;;;;;;12846934;23;19997;-83
2023/04/04 23:03:43;;;;;;;6.93;5.63;;;;;;;;;;12846720;23;20020;-81
2023/04/04 23:08:44;;;;;;;7.40;5.82;;;;;;;;;;12833670;23;20260;-83
2023/04/04 23:13:44;;;;;;;11.57;8.43;;;;;;;;;;12785784;23;20028;-81
2023/04/04 23:18:47;;;;;;;10.18;6.93;;;;;;;;;;12786389;23;20509;-82
2023/04/04 23:23:48;;;;;;;10.25;6.35;;;;;;;;;;12785741;23;20013;-83
2023/04/04 23:28:49;;;;;;;6.38;5.45;;;;;;;;;;12784364;23;20009;-84
2023/04/04 23:33:50;;;;;;;8.73;5.10;;;;;;;;;;12788154;23;20019;-82
2023/04/04 23:38:50;;;;;;;8.23;5.60;;;;;;;;;;12758638;23;20109;-81
2023/04/04 23:43:52;;;;;;;7.07;5.70;;;;;;;;;;12797855;23;20017;-83
2023/04/04 23:48:54;;;;;;;8.10;6.47;;;;;;;;;;12799848;23;20350;-80
2023/04/04 23:53:56;;;;;;;8.13;6.85;;;;;;;;;;12774133;23;20087;-80
2023/04/04 23:58:56;;;;;;;7.25;5.35;;;;;;;;;;12785890;23;20040;-80
